sensor_id;sensor_type;location;lat;lon;timestamp;temperature;humidity
10312;DHT22;5201;48.776;9.128;2023-01-15T00:01:15;11.80;99.90
10312;DHT22;5201;48.776;9.128;2023-01-15T00:03:41;10.50;99.90
10312;DHT22;5201;48.776;9.128;2023-01-15T00:06:07;10.50;99.90
10312;DHT22;5201;48.776;9.128;2023-01-15T00:08:33;10.50;99.90
10312;DHT22;5201;48.776;9.128;2023-01-15T00:11:02;10.40;99.90
10312;DHT22;5201;48.776;9.128;2023-01-15T00:13:28;10.40;99.90
10312;DHT22;5201;48.776;9.128;2023-01-15T00:16:00;10.60;99.90
10312;DHT22;5201;48.776;9.128;2023-01-15T00:18:26;10.50;99.90
10312;DHT22;5201;48.776;9.128;2023-01-15T00:21:01;10.50;99.90
10312;DHT22;5201;48.776;9.128;2023-01-15T00:23:27;10.50;99.90
10312;DHT22;5201;48.776;9.128;2023-01-15T00:26:16;11.30;99.90
10312;DHT22;5201;48.776;9.128;2023-01-15T00:29:00;10.40;99.90
10312;DHT22;5201;48.776;9.128;2023-01-15T00:31:26;11.50;99.90
10312;DHT22;5201;48.776;9.128;2023-01-15T00:33:52;10.80;99.90
10312;DHT22;5201;48.776;9.128;2023-01-15T00:36:18;10.60;99.90
10312;DHT22;5201;48.776;9.128;2023-01-15T00:38:45;10.70;99.90
10312;DHT22;5201;48.776;9.128;2023-01-15T00:41:11;10.80;99.90
10312;DHT22;5201;48.776;9.128;2023-01-15T00:43:36;10.80;99.90
10312;DHT22;5201;48.776;9.128;2023-01-15T00:46:02;10.80;99.90
10312;DHT22;5201;48.776;9.128;2023-01-15T00:48:29;10.80;99.90
10312;DHT22;5201;48.776;9.128;2023-01-15T00:50:55;10.70;99.90
10312;DHT22;5201;48.776;9.128;2023-01-15T00:53:21;10.70;99.90
10312;DHT22;5201;48.776;9.128;2023-01-15T00:55:46;10.60;99.90
10312;DHT22;5201;48.776;9.128;2023-01-15T00:58:12;10.70;99.90
10312;DHT22;5201;48.776;9.128;2023-01-15T01:00:37;10.80;99.90
10312;DHT22;5201;48.776;9.128;2023-01-15T01:03:03;10.80;99.90
10312;DHT22;5201;48.776;9.128;2023-01-15T01:05:30;10.90;99.90
10312;DHT22;5201;48.776;9.128;2023-01-15T01:07:55;10.80;99.90
10312;DHT22;5201;48.776;9.128;2023-01-15T01:10:21;10.60;99.90
10312;DHT22;5201;48.776;9.128;2023-01-15T01:12:46;10.70;99.90
10312;DHT22;5201;48.776;9.128;2023-01-15T01:15:16;11.30;99.90
10312;DHT22;5201;48.776;9.128;2023-01-15T01:17:42;10.80;99.90
10312;DHT22;5201;48.776;9.128;2023-01-15T01:20:08;11.10;99.90
10312;DHT22;5201;48.776;9.128;2023-01-15T01:22:36;10.70;99.90
10312;DHT22;5201;48.776;9.128;2023-01-15T01:25:02;10.70;99.90
10312;DHT22;5201;48.776;9.128;2023-01-15T01:27:27;10.70;99.90
10312;DHT22;5201;48.776;9.128;2023-01-15T01:29:53;10.70;99.90
10312;DHT22;5201;48.776;9.128;2023-01-15T01:32:18;10.60;99.90
10312;DHT22;5201;48.776;9.128;2023-01-15T01:34:44;10.70;99.90
10312;DHT22;5201;48.776;9.128;2023-01-15T01:37:10;10.70;99.90
10312;DHT22;5201;48.776;9.128;2023-01-15T01:39:35;10.70;99.90
10312;DHT22;5201;48.776;9.128;2023-01-15T01:42:01;10.90;99.90
10312;DHT22;5201;48.776;9.128;2023-01-15T01:47:00;11.10;99.90
10312;DHT22;5201;48.776;9.128;2023-01-15T01:49:27;10.80;99.90
10312;DHT22;5201;48.776;9.128;2023-01-15T01:52:01;10.70;99.90
10312;DHT22;5201;48.776;9.128;2023-01-15T01:54:29;10.90;99.90
10312;DHT22;5201;48.776;9.128;2023-01-15T01:56:57;11.00;99.90
10312;DHT22;5201;48.776;9.128;2023-01-15T01:59:24;11.30;99.90
10312;DHT22;5201;48.776;9.128;2023-01-15T02:01:50;11.50;99.90
10312;DHT22;5201;48.776;9.128;2023-01-15T02:04:18;11.50;99.90
10312;DHT22;5201;48.776;9.128;2023-01-15T02:06:45;10.90;99.90
10312;DHT22;5201;48.776;9.128;2023-01-15T02:09:11;10.90;99.90
10312;DHT22;5201;48.776;9.128;2023-01-15T02:11:37;10.90;99.90
10312;DHT22;5201;48.776;9.128;2023-01-15T02:14:25;11.40;99.90
10312;DHT22;5201;48.776;9.128;2023-01-15T02:17:04;11.00;99.90
10312;DHT22;5201;48.776;9.128;2023-01-15T02:27:55;11.10;99.90
10312;DHT22;5201;48.776;9.128;2023-01-15T02:30:30;11.80;99.90
10312;DHT22;5201;48.776;9.128;2023-01-15T02:33:27;11.90;99.90
10312;DHT22;5201;48.776;9.128;2023-01-15T02:35:59;11.00;99.90
10312;DHT22;5201;48.776;9.128;2023-01-15T02:38:34;11.10;99.90
10312;DHT22;5201;48.776;9.128;2023-01-15T02:41:04;11.00;99.90
10312;DHT22;5201;48.776;9.128;2023-01-15T02:43:35;11.10;99.90
10312;DHT22;5201;48.776;9.128;2023-01-15T02:46:02;11.10;99.90
10312;DHT22;5201;48.776;9.128;2023-01-15T02:48:31;11.00;99.90
10312;DHT22;5201;48.776;9.128;2023-01-15T02:51:02;11.20;99.90
10312;DHT22;5201;48.776;9.128;2023-01-15T02:53:30;11.10;99.90
10312;DHT22;5201;48.776;9.128;2023-01-15T02:56:03;11.50;99.90
10312;DHT22;5201;48.776;9.128;2023-01-15T02:58:34;11.40;99.90
10312;DHT22;5201;48.776;9.128;2023-01-15T03:01:06;11.40;99.90
10312;DHT22;5201;48.776;9.128;2023-01-15T03:08:56;11.30;99.90
10312;DHT22;5201;48.776;9.128;2023-01-15T03:11:22;11.30;99.90
10312;DHT22;5201;48.776;9.128;2023-01-15T03:13:54;11.40;99.90
10312;DHT22;5201;48.776;9.128;2023-01-15T03:16:49;11.40;99.90
10312;DHT22;5201;48.776;9.128;2023-01-15T03:19:28;11.40;99.90
10312;DHT22;5201;48.776;9.128;2023-01-15T03:22:02;11.50;99.90
10312;DHT22;5201;48.776;9.128;2023-01-15T03:24:37;11.50;99.90
10312;DHT22;5201;48.776;9.128;2023-01-15T03:27:04;12.00;99.90
10312;DHT22;5201;48.776;9.128;2023-01-15T03:29:32;11.50;99.90
10312;DHT22;5201;48.776;9.128;2023-01-15T03:31:59;11.50;99.90
10312;DHT22;5201;48.776;9.128;2023-01-15T03:34:28;11.50;99.90
10312;DHT22;5201;48.776;9.128;2023-01-15T03:36:55;11.60;99.90
10312;DHT22;5201;48.776;9.128;2023-01-15T03:39:21;11.80;99.90
10312;DHT22;5201;48.776;9.128;2023-01-15T03:44:42;11.70;99.90
10312;DHT22;5201;48.776;9.128;2023-01-15T03:47:41;11.70;99.90
10312;DHT22;5201;48.776;9.128;2023-01-15T03:58:52;11.60;99.90
10312;DHT22;5201;48.776;9.128;2023-01-15T04:01:26;11.70;99.90
10312;DHT22;5201;48.776;9.128;2023-01-15T04:03:53;11.70;99.90
10312;DHT22;5201;48.776;9.128;2023-01-15T04:06:20;11.70;99.90
10312;DHT22;5201;48.776;9.128;2023-01-15T04:08:47;11.70;99.90
10312;DHT22;5201;48.776;9.128;2023-01-15T04:11:24;11.70;99.90
10312;DHT22;5201;48.776;9.128;2023-01-15T04:13:50;11.80;99.90
10312;DHT22;5201;48.776;9.128;2023-01-15T04:16:23;11.80;99.90
10312;DHT22;5201;48.776;9.128;2023-01-15T04:18:49;11.80;99.90
10312;DHT22;5201;48.776;9.128;2023-01-15T04:21:14;12.50;99.90
10312;DHT22;5201;48.776;9.128;2023-01-15T04:23:40;11.80;99.90
10312;DHT22;5201;48.776;9.128;2023-01-15T04:26:05;11.80;99.90
10312;DHT22;5201;48.776;9.128;2023-01-15T04:28:32;11.80;99.90
10312;DHT22;5201;48.776;9.128;2023-01-15T04:30:58;11.70;99.90
10312;DHT22;5201;48.776;9.128;2023-01-15T04:33:24;11.70;99.90
10312;DHT22;5201;48.776;9.128;2023-01-15T04:35:50;11.70;99.90
10312;DHT22;5201;48.776;9.128;2023-01-15T04:38:16;12.10;99.90
10312;DHT22;5201;48.776;9.128;2023-01-15T04:40:43;11.80;99.90
10312;DHT22;5201;48.776;9.128;2023-01-15T04:43:27;11.80;99.90
10312;DHT22;5201;48.776;9.128;2023-01-15T04:46:11;11.80;99.90
10312;DHT22;5201;48.776;9.128;2023-01-15T04:48:40;11.90;99.90
10312;DHT22;5201;48.776;9.128;2023-01-15T04:51:06;11.90;99.90
10312;DHT22;5201;48.776;9.128;2023-01-15T04:53:32;12.10;99.90
10312;DHT22;5201;48.776;9.128;2023-01-15T04:56:03;11.90;99.90
10312;DHT22;5201;48.776;9.128;2023-01-15T04:58:29;12.00;99.90
10312;DHT22;5201;48.776;9.128;2023-01-15T05:00:55;12.00;99.90
10312;DHT22;5201;48.776;9.128;2023-01-15T05:03:20;12.00;99.90
10312;DHT22;5201;48.776;9.128;2023-01-15T05:05:46;12.00;99.90
10312;DHT22;5201;48.776;9.128;2023-01-15T05:08:11;12.00;99.90
10312;DHT22;5201;48.776;9.128;2023-01-15T05:10:37;12.50;99.90
10312;DHT22;5201;48.776;9.128;2023-01-15T05:13:02;11.90;99.90
10312;DHT22;5201;48.776;9.128;2023-01-15T05:15:28;12.20;99.90
10312;DHT22;5201;48.776;9.128;2023-01-15T05:17:54;12.00;99.90
10312;DHT22;5201;48.776;9.128;2023-01-15T05:20:20;11.90;99.90
10312;DHT22;5201;48.776;9.128;2023-01-15T05:22:46;11.80;99.90
10312;DHT22;5201;48.776;9.128;2023-01-15T05:25:11;11.60;99.90
10312;DHT22;5201;48.776;9.128;2023-01-15T05:27:37;10.80;99.90
10312;DHT22;5201;48.776;9.128;2023-01-15T05:30:03;10.40;99.90
10312;DHT22;5201;48.776;9.128;2023-01-15T05:32:29;10.10;99.90
10312;DHT22;5201;48.776;9.128;2023-01-15T05:34:55;10.00;99.90
10312;DHT22;5201;48.776;9.128;2023-01-15T05:37:20;9.90;99.90
10312;DHT22;5201;48.776;9.128;2023-01-15T05:39:46;9.70;99.90
10312;DHT22;5201;48.776;9.128;2023-01-15T05:42:11;9.40;99.90
10312;DHT22;5201;48.776;9.128;2023-01-15T05:44:37;9.20;99.90
10312;DHT22;5201;48.776;9.128;2023-01-15T05:47:03;9.30;99.90
10312;DHT22;5201;48.776;9.128;2023-01-15T05:49:30;9.30;99.90
10312;DHT22;5201;48.776;9.128;2023-01-15T05:51:57;9.50;99.90
10312;DHT22;5201;48.776;9.128;2023-01-15T05:54:25;9.80;99.90
10312;DHT22;5201;48.776;9.128;2023-01-15T05:56:51;9.00;99.90
10312;DHT22;5201;48.776;9.128;2023-01-15T05:59:19;8.80;99.90
10312;DHT22;5201;48.776;9.128;2023-01-15T06:01:45;8.70;99.90
10312;DHT22;5201;48.776;9.128;2023-01-15T06:04:11;8.60;99.90
10312;DHT22;5201;48.776;9.128;2023-01-15T06:06:42;8.50;99.90
10312;DHT22;5201;48.776;9.128;2023-01-15T06:09:09;8.60;99.90
10312;DHT22;5201;48.776;9.128;2023-01-15T06:11:34;8.80;99.90
10312;DHT22;5201;48.776;9.128;2023-01-15T06:14:00;8.60;99.90
10312;DHT22;5201;48.776;9.128;2023-01-15T06:16:26;8.70;99.90
10312;DHT22;5201;48.776;9.128;2023-01-15T06:18:51;8.60;99.90
10312;DHT22;5201;48.776;9.128;2023-01-15T06:21:17;8.60;99.90
10312;DHT22;5201;48.776;9.128;2023-01-15T06:23:43;8.60;99.90
10312;DHT22;5201;48.776;9.128;2023-01-15T06:26:15;8.60;99.90
10312;DHT22;5201;48.776;9.128;2023-01-15T06:28:41;8.60;99.90
10312;DHT22;5201;48.776;9.128;2023-01-15T06:31:09;8.50;99.90
10312;DHT22;5201;48.776;9.128;2023-01-15T06:33:35;8.40;99.90
10312;DHT22;5201;48.776;9.128;2023-01-15T06:36:09;9.00;99.90
10312;DHT22;5201;48.776;9.128;2023-01-15T06:38:36;8.40;99.90
10312;DHT22;5201;48.776;9.128;2023-01-15T06:41:04;8.30;99.90
10312;DHT22;5201;48.776;9.128;2023-01-15T06:43:49;8.10;99.90
10312;DHT22;5201;48.776;9.128;2023-01-15T06:46:33;8.10;99.90
10312;DHT22;5201;48.776;9.128;2023-01-15T06:49:17;8.00;99.90
10312;DHT22;5201;48.776;9.128;2023-01-15T06:51:43;8.40;99.90
10312;DHT22;5201;48.776;9.128;2023-01-15T06:54:08;7.90;99.90
10312;DHT22;5201;48.776;9.128;2023-01-15T06:56:34;7.60;99.90
10312;DHT22;5201;48.776;9.128;2023-01-15T06:58:59;7.70;99.90
10312;DHT22;5201;48.776;9.128;2023-01-15T07:01:25;7.70;99.90
10312;DHT22;5201;48.776;9.128;2023-01-15T07:03:55;8.40;99.90
10312;DHT22;5201;48.776;9.128;2023-01-15T07:06:20;7.80;99.90
10312;DHT22;5201;48.776;9.128;2023-01-15T07:08:46;7.80;99.90
10312;DHT22;5201;48.776;9.128;2023-01-15T07:11:12;7.70;99.90
10312;DHT22;5201;48.776;9.128;2023-01-15T07:13:38;7.40;99.90
10312;DHT22;5201;48.776;9.128;2023-01-15T07:16:04;7.30;99.90
10312;DHT22;5201;48.776;9.128;2023-01-15T07:18:32;7.20;99.90
10312;DHT22;5201;48.776;9.128;2023-01-15T07:20:58;7.30;99.90
10312;DHT22;5201;48.776;9.128;2023-01-15T07:23:25;7.20;99.90
10312;DHT22;5201;48.776;9.128;2023-01-15T07:25:54;7.10;99.90
10312;DHT22;5201;48.776;9.128;2023-01-15T07:28:21;7.00;99.90
10312;DHT22;5201;48.776;9.128;2023-01-15T07:30:47;6.90;99.90
10312;DHT22;5201;48.776;9.128;2023-01-15T07:33:13;6.90;99.90
10312;DHT22;5201;48.776;9.128;2023-01-15T07:35:38;6.80;99.90
10312;DHT22;5201;48.776;9.128;2023-01-15T07:38:04;6.80;99.90
10312;DHT22;5201;48.776;9.128;2023-01-15T07:40:29;6.70;99.90
10312;DHT22;5201;48.776;9.128;2023-01-15T07:42:55;6.60;99.90
10312;DHT22;5201;48.776;9.128;2023-01-15T07:45:40;6.80;99.90
10312;DHT22;5201;48.776;9.128;2023-01-15T07:48:36;6.80;99.90
10312;DHT22;5201;48.776;9.128;2023-01-15T07:51:20;6.80;99.90
10312;DHT22;5201;48.776;9.128;2023-01-15T07:53:45;6.80;99.90
10312;DHT22;5201;48.776;9.128;2023-01-15T07:56:11;6.70;99.90
10312;DHT22;5201;48.776;9.128;2023-01-15T07:58:37;7.40;99.90
10312;DHT22;5201;48.776;9.128;2023-01-15T08:01:02;6.90;99.90
10312;DHT22;5201;48.776;9.128;2023-01-15T08:03:28;7.00;99.90
10312;DHT22;5201;48.776;9.128;2023-01-15T08:05:53;7.10;99.90
10312;DHT22;5201;48.776;9.128;2023-01-15T08:08:19;7.10;99.90
10312;DHT22;5201;48.776;9.128;2023-01-15T08:10:45;7.10;99.90
10312;DHT22;5201;48.776;9.128;2023-01-15T08:13:29;7.10;99.90
10312;DHT22;5201;48.776;9.128;2023-01-15T08:16:13;6.90;99.90
10312;DHT22;5201;48.776;9.128;2023-01-15T08:18:39;8.30;99.90
10312;DHT22;5201;48.776;9.128;2023-01-15T08:21:05;6.90;99.90
10312;DHT22;5201;48.776;9.128;2023-01-15T08:23:30;6.90;99.90
10312;DHT22;5201;48.776;9.128;2023-01-15T08:25:59;6.80;99.90
10312;DHT22;5201;48.776;9.128;2023-01-15T08:28:26;6.80;99.90
10312;DHT22;5201;48.776;9.128;2023-01-15T08:30:51;6.70;99.90
10312;DHT22;5201;48.776;9.128;2023-01-15T08:33:17;6.70;99.90
10312;DHT22;5201;48.776;9.128;2023-01-15T08:35:43;6.60;99.90
10312;DHT22;5201;48.776;9.128;2023-01-15T08:38:09;6.60;99.90
10312;DHT22;5201;48.776;9.128;2023-01-15T08:40:35;6.60;99.90
10312;DHT22;5201;48.776;9.128;2023-01-15T08:43:21;6.70;99.90
10312;DHT22;5201;48.776;9.128;2023-01-15T08:45:46;6.80;99.90
10312;DHT22;5201;48.776;9.128;2023-01-15T08:48:12;6.90;99.90
10312;DHT22;5201;48.776;9.128;2023-01-15T08:50:37;6.70;99.90
10312;DHT22;5201;48.776;9.128;2023-01-15T08:53:03;6.60;99.90
10312;DHT22;5201;48.776;9.128;2023-01-15T08:55:28;6.70;99.90
10312;DHT22;5201;48.776;9.128;2023-01-15T08:57:54;6.80;99.90
10312;DHT22;5201;48.776;9.128;2023-01-15T09:00:20;6.80;99.90
10312;DHT22;5201;48.776;9.128;2023-01-15T09:02:46;6.70;99.90
10312;DHT22;5201;48.776;9.128;2023-01-15T09:05:11;6.80;99.90
10312;DHT22;5201;48.776;9.128;2023-01-15T09:07:37;7.00;99.90
10312;DHT22;5201;48.776;9.128;2023-01-15T09:10:03;6.90;99.90
10312;DHT22;5201;48.776;9.128;2023-01-15T09:12:29;6.80;99.90
10312;DHT22;5201;48.776;9.128;2023-01-15T09:14:54;7.90;99.90
10312;DHT22;5201;48.776;9.128;2023-01-15T09:17:20;7.10;99.90
10312;DHT22;5201;48.776;9.128;2023-01-15T09:19:46;7.10;99.90
10312;DHT22;5201;48.776;9.128;2023-01-15T09:22:12;7.10;99.90
10312;DHT22;5201;48.776;9.128;2023-01-15T09:24:38;7.20;99.90
10312;DHT22;5201;48.776;9.128;2023-01-15T09:27:03;7.30;99.90
10312;DHT22;5201;48.776;9.128;2023-01-15T09:29:29;7.40;99.90
10312;DHT22;5201;48.776;9.128;2023-01-15T09:31:54;7.40;99.90
10312;DHT22;5201;48.776;9.128;2023-01-15T09:34:20;7.40;99.90
10312;DHT22;5201;48.776;9.128;2023-01-15T09:36:46;7.50;99.90
10312;DHT22;5201;48.776;9.128;2023-01-15T09:39:11;7.60;99.90
10312;DHT22;5201;48.776;9.128;2023-01-15T09:47:23;7.70;99.90
10312;DHT22;5201;48.776;9.128;2023-01-15T09:57:35;7.40;99.90
10312;DHT22;5201;48.776;9.128;2023-01-15T10:00:03;7.20;99.90
10312;DHT22;5201;48.776;9.128;2023-01-15T10:02:45;7.30;99.90
10312;DHT22;5201;48.776;9.128;2023-01-15T10:05:16;7.20;99.90
10312;DHT22;5201;48.776;9.128;2023-01-15T10:10:39;7.30;99.90
10312;DHT22;5201;48.776;9.128;2023-01-15T10:16:01;7.30;99.90
10312;DHT22;5201;48.776;9.128;2023-01-15T10:18:27;7.30;99.90
10312;DHT22;5201;48.776;9.128;2023-01-15T10:24:25;7.30;99.90
10312;DHT22;5201;48.776;9.128;2023-01-15T10:26:53;7.40;99.90
10312;DHT22;5201;48.776;9.128;2023-01-15T10:32:44;5.90;99.90
10312;DHT22;5201;48.776;9.128;2023-01-15T10:46:13;7.50;99.90
10312;DHT22;5201;48.776;9.128;2023-01-15T10:48:43;7.50;99.90
10312;DHT22;5201;48.776;9.128;2023-01-15T10:54:03;7.30;99.90
10312;DHT22;5201;48.776;9.128;2023-01-15T10:56:39;7.10;99.90
10312;DHT22;5201;48.776;9.128;2023-01-15T10:59:21;6.70;99.90
10312;DHT22;5201;48.776;9.128;2023-01-15T11:01:53;6.40;99.90
10312;DHT22;5201;48.776;9.128;2023-01-15T11:04:19;6.50;99.90
10312;DHT22;5201;48.776;9.128;2023-01-15T11:06:45;6.20;99.90
10312;DHT22;5201;48.776;9.128;2023-01-15T11:09:19;6.20;99.90
10312;DHT22;5201;48.776;9.128;2023-01-15T11:11:48;6.20;99.90
10312;DHT22;5201;48.776;9.128;2023-01-15T11:14:39;5.90;99.90
10312;DHT22;5201;48.776;9.128;2023-01-15T11:17:36;5.80;99.90
10312;DHT22;5201;48.776;9.128;2023-01-15T11:20:35;5.70;99.90
10312;DHT22;5201;48.776;9.128;2023-01-15T11:23:09;6.30;99.90
10312;DHT22;5201;48.776;9.128;2023-01-15T11:25:35;5.80;99.90
10312;DHT22;5201;48.776;9.128;2023-01-15T11:28:05;5.60;99.90
10312;DHT22;5201;48.776;9.128;2023-01-15T11:30:36;6.50;99.90
10312;DHT22;5201;48.776;9.128;2023-01-15T11:33:04;5.50;99.90
10312;DHT22;5201;48.776;9.128;2023-01-15T11:35:31;5.60;99.90
10312;DHT22;5201;48.776;9.128;2023-01-15T11:38:05;5.60;99.90
10312;DHT22;5201;48.776;9.128;2023-01-15T11:40:31;5.60;99.90
10312;DHT22;5201;48.776;9.128;2023-01-15T11:42:57;5.40;99.90
10312;DHT22;5201;48.776;9.128;2023-01-15T11:45:49;5.40;99.90
10312;DHT22;5201;48.776;9.128;2023-01-15T11:48:45;5.20;99.90
10312;DHT22;5201;48.776;9.128;2023-01-15T11:51:45;5.50;99.90
10312;DHT22;5201;48.776;9.128;2023-01-15T11:54:13;4.80;99.90
10312;DHT22;5201;48.776;9.128;2023-01-15T11:56:42;4.80;99.90
10312;DHT22;5201;48.776;9.128;2023-01-15T11:59:12;4.90;99.90
10312;DHT22;5201;48.776;9.128;2023-01-15T12:01:50;5.10;99.90
10312;DHT22;5201;48.776;9.128;2023-01-15T12:04:37;5.20;99.90
10312;DHT22;5201;48.776;9.128;2023-01-15T12:07:05;5.20;99.90
10312;DHT22;5201;48.776;9.128;2023-01-15T12:12:30;5.10;99.90
10312;DHT22;5201;48.776;9.128;2023-01-15T12:15:29;5.10;99.90
10312;DHT22;5201;48.776;9.128;2023-01-15T12:18:28;5.00;99.90
10312;DHT22;5201;48.776;9.128;2023-01-15T12:26:43;5.10;99.90
10312;DHT22;5201;48.776;9.128;2023-01-15T12:29:18;5.00;99.90
10312;DHT22;5201;48.776;9.128;2023-01-15T12:31:51;5.00;99.90
10312;DHT22;5201;48.776;9.128;2023-01-15T12:36:50;5.10;99.90
10312;DHT22;5201;48.776;9.128;2023-01-15T12:39:17;5.50;99.90
10312;DHT22;5201;48.776;9.128;2023-01-15T12:41:47;5.50;99.90
10312;DHT22;5201;48.776;9.128;2023-01-15T12:44:36;5.10;99.90
10312;DHT22;5201;48.776;9.128;2023-01-15T12:55:42;5.40;99.90
10312;DHT22;5201;48.776;9.128;2023-01-15T13:01:20;5.40;99.90
10312;DHT22;5201;48.776;9.128;2023-01-15T13:04:14;5.50;99.90
10312;DHT22;5201;48.776;9.128;2023-01-15T13:06:46;5.50;99.90
10312;DHT22;5201;48.776;9.128;2023-01-15T13:09:43;5.50;99.90
10312;DHT22;5201;48.776;9.128;2023-01-15T13:12:14;5.50;99.90
10312;DHT22;5201;48.776;9.128;2023-01-15T13:14:41;5.60;99.90
10312;DHT22;5201;48.776;9.128;2023-01-15T13:19:47;5.60;99.90
10312;DHT22;5201;48.776;9.128;2023-01-15T13:22:22;5.70;99.90
10312;DHT22;5201;48.776;9.128;2023-01-15T13:27:39;5.80;99.90
10312;DHT22;5201;48.776;9.128;2023-01-15T13:32:50;5.80;99.90
10312;DHT22;5201;48.776;9.128;2023-01-15T13:35:29;5.90;99.90
10312;DHT22;5201;48.776;9.128;2023-01-15T13:38:00;5.90;99.90
10312;DHT22;5201;48.776;9.128;2023-01-15T13:40:40;5.80;99.90
10312;DHT22;5201;48.776;9.128;2023-01-15T13:43:08;5.80;99.90
10312;DHT22;5201;48.776;9.128;2023-01-15T13:45:42;5.90;99.90
10312;DHT22;5201;48.776;9.128;2023-01-15T13:51:04;5.90;99.90
10312;DHT22;5201;48.776;9.128;2023-01-15T13:53:34;5.80;99.90
10312;DHT22;5201;48.776;9.128;2023-01-15T13:56:07;5.70;99.90
10312;DHT22;5201;48.776;9.128;2023-01-15T13:59:00;5.50;99.90
10312;DHT22;5201;48.776;9.128;2023-01-15T14:06:48;5.60;99.90
10312;DHT22;5201;48.776;9.128;2023-01-15T14:09:27;5.60;99.90
10312;DHT22;5201;48.776;9.128;2023-01-15T14:12:11;5.70;99.90
10312;DHT22;5201;48.776;9.128;2023-01-15T14:15:12;5.70;99.90
10312;DHT22;5201;48.776;9.128;2023-01-15T14:20:44;5.70;99.90
10312;DHT22;5201;48.776;9.128;2023-01-15T14:25:47;5.60;99.90
10312;DHT22;5201;48.776;9.128;2023-01-15T14:28:40;5.60;99.90
10312;DHT22;5201;48.776;9.128;2023-01-15T14:39:32;5.70;99.90
10312;DHT22;5201;48.776;9.128;2023-01-15T14:53:01;5.60;99.90
10312;DHT22;5201;48.776;9.128;2023-01-15T14:55:28;5.50;99.90
10312;DHT22;5201;48.776;9.128;2023-01-15T14:58:03;5.50;99.90
10312;DHT22;5201;48.776;9.128;2023-01-15T15:00:38;5.60;99.90
10312;DHT22;5201;48.776;9.128;2023-01-15T15:03:16;5.60;99.90
10312;DHT22;5201;48.776;9.128;2023-01-15T15:05:45;5.60;99.90
10312;DHT22;5201;48.776;9.128;2023-01-15T15:08:14;5.60;99.90
10312;DHT22;5201;48.776;9.128;2023-01-15T15:10:43;5.60;99.90
10312;DHT22;5201;48.776;9.128;2023-01-15T15:13:36;5.50;99.90
10312;DHT22;5201;48.776;9.128;2023-01-15T15:16:15;5.50;99.90
10312;DHT22;5201;48.776;9.128;2023-01-15T15:18:46;5.50;99.90
10312;DHT22;5201;48.776;9.128;2023-01-15T15:21:21;5.40;99.90
10312;DHT22;5201;48.776;9.128;2023-01-15T15:24:04;5.50;99.90
10312;DHT22;5201;48.776;9.128;2023-01-15T15:26:34;5.50;99.90
10312;DHT22;5201;48.776;9.128;2023-01-15T15:29:03;5.40;99.90
10312;DHT22;5201;48.776;9.128;2023-01-15T15:34:29;5.40;99.90
10312;DHT22;5201;48.776;9.128;2023-01-15T15:37:03;5.40;99.90
10312;DHT22;5201;48.776;9.128;2023-01-15T15:39:50;5.30;99.90
10312;DHT22;5201;48.776;9.128;2023-01-15T15:45:14;5.20;99.90
10312;DHT22;5201;48.776;9.128;2023-01-15T15:51:01;5.10;99.90
10312;DHT22;5201;48.776;9.128;2023-01-15T15:53:28;5.60;99.90
10312;DHT22;5201;48.776;9.128;2023-01-15T15:55:55;5.20;99.90
10312;DHT22;5201;48.776;9.128;2023-01-15T15:58:35;5.10;99.90
10312;DHT22;5201;48.776;9.128;2023-01-15T16:01:02;5.10;99.90
10312;DHT22;5201;48.776;9.128;2023-01-15T16:03:30;5.20;99.90
10312;DHT22;5201;48.776;9.128;2023-01-15T16:06:05;5.20;99.90
10312;DHT22;5201;48.776;9.128;2023-01-15T16:08:33;5.20;99.90
10312;DHT22;5201;48.776;9.128;2023-01-15T16:11:03;5.30;99.90
10312;DHT22;5201;48.776;9.128;2023-01-15T16:13:35;5.40;99.90
10312;DHT22;5201;48.776;9.128;2023-01-15T16:16:03;5.30;99.90
10312;DHT22;5201;48.776;9.128;2023-01-15T16:18:33;5.30;99.90
10312;DHT22;5201;48.776;9.128;2023-01-15T16:21:00;5.40;99.90
10312;DHT22;5201;48.776;9.128;2023-01-15T16:23:28;5.30;99.90
10312;DHT22;5201;48.776;9.128;2023-01-15T16:26:18;5.20;99.90
10312;DHT22;5201;48.776;9.128;2023-01-15T16:28:57;5.10;99.90
10312;DHT22;5201;48.776;9.128;2023-01-15T16:31:24;5.00;99.90
10312;DHT22;5201;48.776;9.128;2023-01-15T16:33:57;5.00;99.90
10312;DHT22;5201;48.776;9.128;2023-01-15T16:36:24;5.10;99.90
10312;DHT22;5201;48.776;9.128;2023-01-15T16:38:51;5.20;99.90
10312;DHT22;5201;48.776;9.128;2023-01-15T16:41:29;5.10;99.90
10312;DHT22;5201;48.776;9.128;2023-01-15T16:44:02;5.00;99.90
10312;DHT22;5201;48.776;9.128;2023-01-15T16:46:31;5.00;99.90
10312;DHT22;5201;48.776;9.128;2023-01-15T16:49:17;5.00;99.90
10312;DHT22;5201;48.776;9.128;2023-01-15T16:51:44;5.00;99.90
10312;DHT22;5201;48.776;9.128;2023-01-15T17:02:02;4.80;99.90
10312;DHT22;5201;48.776;9.128;2023-01-15T17:07:23;4.70;99.90
10312;DHT22;5201;48.776;9.128;2023-01-15T17:09:49;4.60;99.90
10312;DHT22;5201;48.776;9.128;2023-01-15T17:12:22;4.60;99.90
10312;DHT22;5201;48.776;9.128;2023-01-15T17:14:48;4.60;99.90
10312;DHT22;5201;48.776;9.128;2023-01-15T17:19:48;4.70;99.90
10312;DHT22;5201;48.776;9.128;2023-01-15T17:22:29;4.60;99.90
10312;DHT22;5201;48.776;9.128;2023-01-15T17:24:57;4.60;99.90
10312;DHT22;5201;48.776;9.128;2023-01-15T17:27:25;4.60;99.90
10312;DHT22;5201;48.776;9.128;2023-01-15T17:29:51;4.60;99.90
10312;DHT22;5201;48.776;9.128;2023-01-15T17:32:23;4.60;99.90
10312;DHT22;5201;48.776;9.128;2023-01-15T17:34:50;4.50;99.90
10312;DHT22;5201;48.776;9.128;2023-01-15T17:37:15;4.30;99.90
10312;DHT22;5201;48.776;9.128;2023-01-15T17:39:41;4.30;99.90
10312;DHT22;5201;48.776;9.128;2023-01-15T17:42:15;4.30;99.90
10312;DHT22;5201;48.776;9.128;2023-01-15T17:44:41;5.80;99.90
10312;DHT22;5201;48.776;9.128;2023-01-15T17:47:06;4.40;99.90
10312;DHT22;5201;48.776;9.128;2023-01-15T17:49:32;4.30;99.90
10312;DHT22;5201;48.776;9.128;2023-01-15T17:51:58;4.30;99.90
10312;DHT22;5201;48.776;9.128;2023-01-15T17:54:24;4.40;99.90
10312;DHT22;5201;48.776;9.128;2023-01-15T17:57:09;4.40;99.90
10312;DHT22;5201;48.776;9.128;2023-01-15T17:59:53;4.30;99.90
10312;DHT22;5201;48.776;9.128;2023-01-15T18:02:37;4.20;99.90
10312;DHT22;5201;48.776;9.128;2023-01-15T18:05:21;6.50;99.90
10312;DHT22;5201;48.776;9.128;2023-01-15T18:07:51;4.20;99.90
10312;DHT22;5201;48.776;9.128;2023-01-15T18:10:20;4.20;99.90
10312;DHT22;5201;48.776;9.128;2023-01-15T18:12:47;4.30;99.90
10312;DHT22;5201;48.776;9.128;2023-01-15T18:15:13;4.40;99.90
10312;DHT22;5201;48.776;9.128;2023-01-15T18:17:39;4.40;99.90
10312;DHT22;5201;48.776;9.128;2023-01-15T18:20:05;4.30;99.90
10312;DHT22;5201;48.776;9.128;2023-01-15T18:22:31;4.30;99.90
10312;DHT22;5201;48.776;9.128;2023-01-15T18:24:56;4.30;99.90
10312;DHT22;5201;48.776;9.128;2023-01-15T18:27:22;4.40;99.90
10312;DHT22;5201;48.776;9.128;2023-01-15T18:29:56;4.30;99.90
10312;DHT22;5201;48.776;9.128;2023-01-15T18:32:26;4.30;99.90
10312;DHT22;5201;48.776;9.128;2023-01-15T18:34:51;4.50;99.90
10312;DHT22;5201;48.776;9.128;2023-01-15T18:37:17;4.30;99.90
10312;DHT22;5201;48.776;9.128;2023-01-15T18:39:43;4.20;99.90
10312;DHT22;5201;48.776;9.128;2023-01-15T18:42:09;4.20;99.90
10312;DHT22;5201;48.776;9.128;2023-01-15T18:44:35;4.20;99.90
10312;DHT22;5201;48.776;9.128;2023-01-15T18:47:19;4.20;99.90
10312;DHT22;5201;48.776;9.128;2023-01-15T18:49:45;4.20;99.90
10312;DHT22;5201;48.776;9.128;2023-01-15T18:52:13;4.20;99.90